Annville, Kentucky
Current Conditions -  °F | °C
As of 1:53 AM on Sunday 23 Nov 2014 (Local Time) from KLOZ Reporting Station
Broken Clouds Broken Clouds  
Wind Chill: 46°   Ceiling: 10000
Heat Index: 46°   Visibility: 10mi
Dew Point: 32°   Wind: 3mph
Humidity: 58%   Direction: 140°SE
Pressure: 30.1"   Gusts: NA
Location:  37.32°N, 83.97°W
Report Text: KLOZ 230653Z AUTO 14003KT 10SM BKN100 08/00 A3010 RMK AO2 SLP192 T00780000
Loading
Personal Weather Stations






























Interactive Weather Map New forecast layout! Learn more

10-Day Weather Forecast

Advertisements
Track Severe Weather on mobile